createdAt,value
2022-10-26T00:00:33.451Z,10.96
2022-10-26T00:03:25.528Z,10.94
2022-10-26T00:06:03.157Z,10.92
2022-10-26T00:08:35.594Z,10.91
2022-10-26T00:11:10.040Z,10.88
2022-10-26T00:13:43.216Z,10.87
2022-10-26T00:16:19.345Z,10.86
2022-10-26T00:18:51.972Z,10.83
2022-10-26T00:21:24.701Z,10.79
2022-10-26T00:23:59.859Z,10.76
2022-10-26T00:26:31.866Z,10.75
2022-10-26T00:29:04.598Z,10.74
2022-10-26T00:31:38.241Z,10.72
2022-10-26T00:34:11.945Z,10.72
2022-10-26T00:36:44.286Z,10.72
2022-10-26T00:39:18.097Z,10.71
2022-10-26T00:41:51.142Z,10.69
2022-10-26T00:45:05.730Z,10.68
2022-10-26T00:47:42.917Z,10.67
2022-10-26T00:50:21.437Z,10.66
2022-10-26T00:52:54.521Z,10.65
2022-10-26T00:55:32.984Z,10.63
2022-10-26T00:58:11.336Z,10.60
2022-10-26T01:00:48.150Z,10.56
2022-10-26T01:03:21.640Z,10.52
2022-10-26T01:05:56.617Z,10.46
2022-10-26T01:08:29.986Z,10.36
2022-10-26T01:11:03.698Z,10.28
2022-10-26T01:13:39.663Z,10.21
2022-10-26T01:16:27.250Z,10.17
2022-10-26T01:19:17.928Z,10.13
2022-10-26T01:21:56.244Z,10.06
2022-10-26T01:24:54.291Z,10.01
2022-10-26T01:27:35.715Z,9.92
2022-10-26T01:30:28.190Z,9.84
2022-10-26T01:33:21.392Z,9.77
2022-10-26T01:36:04.589Z,9.73
2022-10-26T01:38:47.363Z,9.68
2022-10-26T01:41:25.241Z,9.59
2022-10-26T01:44:01.345Z,9.46
2022-10-26T01:46:36.468Z,9.37
2022-10-26T01:49:13.093Z,9.32
2022-10-26T01:51:48.386Z,9.28
2022-10-26T01:54:20.543Z,9.20
2022-10-26T01:56:56.754Z,9.12
2022-10-26T01:59:41.006Z,9.09
2022-10-26T02:02:33.629Z,9.00
2022-10-26T02:05:32.703Z,8.94
2022-10-26T02:08:24.121Z,8.87
2022-10-26T02:11:10.411Z,8.78
2022-10-26T02:13:48.013Z,8.73
2022-10-26T02:16:26.093Z,8.71
2022-10-26T02:19:06.457Z,8.67
2022-10-26T02:21:44.800Z,8.63
2022-10-26T02:24:18.331Z,8.60
2022-10-26T02:26:51.895Z,8.59
2022-10-26T02:29:26.215Z,8.59
2022-10-26T02:31:59.147Z,8.55
2022-10-26T02:34:31.774Z,8.51
2022-10-26T02:37:06.081Z,8.47
2022-10-26T02:39:40.549Z,8.42
2022-10-26T02:42:15.606Z,8.36
2022-10-26T02:44:52.501Z,8.31
2022-10-26T02:47:27.846Z,8.28
2022-10-26T02:50:00.995Z,8.25
2022-10-26T02:52:45.685Z,8.22
2022-10-26T02:55:24.592Z,8.21
2022-10-26T02:57:59.543Z,8.21
2022-10-26T03:00:34.627Z,8.20
2022-10-26T03:03:07.436Z,8.18
2022-10-26T03:05:44.838Z,8.15
2022-10-26T03:08:16.894Z,8.15
2022-10-26T03:10:49.283Z,8.11
2022-10-26T03:13:21.249Z,8.08
2022-10-26T03:15:55.963Z,8.05
2022-10-26T03:18:27.971Z,8.03
2022-10-26T03:20:59.908Z,8.05
2022-10-26T03:23:31.980Z,8.07
2022-10-26T03:26:04.225Z,8.08
2022-10-26T03:28:36.522Z,8.09
2022-10-26T03:31:11.217Z,8.12
2022-10-26T03:33:43.545Z,8.15
2022-10-26T03:36:15.440Z,8.17
2022-10-26T03:38:47.846Z,8.19
2022-10-26T03:41:22.246Z,8.17
2022-10-26T03:43:54.729Z,8.15
2022-10-26T03:46:28.973Z,8.09
2022-10-26T03:49:00.992Z,8.06
2022-10-26T03:51:33.389Z,8.04
2022-10-26T03:54:05.754Z,8.02
2022-10-26T03:56:39.390Z,8.00
2022-10-26T03:59:11.478Z,8.01
2022-10-26T04:01:43.534Z,8.03
2022-10-26T04:04:16.109Z,8.05
2022-10-26T04:06:49.120Z,8.07
2022-10-26T04:09:21.305Z,8.07
2022-10-26T04:11:53.440Z,8.05
2022-10-26T04:14:25.656Z,8.05
2022-10-26T04:16:57.685Z,8.03
2022-10-26T04:19:32.176Z,8.02
2022-10-26T04:22:04.112Z,7.99
2022-10-26T04:24:36.486Z,7.97
2022-10-26T04:27:11.230Z,7.95
2022-10-26T04:29:43.300Z,7.89
2022-10-26T04:32:15.269Z,7.84
2022-10-26T04:34:47.307Z,7.82
2022-10-26T04:37:19.314Z,7.81
2022-10-26T04:39:51.314Z,7.77
2022-10-26T04:42:23.634Z,7.75
2022-10-26T04:44:55.663Z,7.70
2022-10-26T04:47:27.721Z,7.60
2022-10-26T04:50:02.087Z,7.55
2022-10-26T04:52:34.053Z,7.49
2022-10-26T04:55:07.168Z,7.46
2022-10-26T04:57:39.148Z,7.45
2022-10-26T05:00:13.052Z,7.46
2022-10-26T05:02:45.135Z,7.49
2022-10-26T05:05:17.403Z,7.52
2022-10-26T05:07:56.878Z,7.57
2022-10-26T05:10:29.591Z,7.62
2022-10-26T05:13:02.658Z,7.66
2022-10-26T05:15:34.624Z,7.70
2022-10-26T05:18:09.126Z,7.75
2022-10-26T05:20:41.051Z,7.76
2022-10-26T05:23:18.415Z,7.77
2022-10-26T05:25:51.898Z,7.76
2022-10-26T05:28:24.461Z,7.75
2022-10-26T05:30:56.399Z,7.76
2022-10-26T05:33:28.872Z,7.77
2022-10-26T05:36:00.902Z,7.76
2022-10-26T05:38:32.926Z,7.77
2022-10-26T05:41:05.160Z,7.79
2022-10-26T05:43:37.111Z,7.79
2022-10-26T05:46:09.137Z,7.81
2022-10-26T05:48:41.068Z,7.84
2022-10-26T05:51:14.374Z,7.86
2022-10-26T05:53:46.347Z,7.82
2022-10-26T05:56:24.409Z,7.77
2022-10-26T05:58:57.239Z,7.75
2022-10-26T06:01:43.875Z,7.72
2022-10-26T06:04:27.720Z,7.73
2022-10-26T06:07:00.475Z,7.72
2022-10-26T06:09:33.583Z,7.73
2022-10-26T06:12:07.450Z,7.77
2022-10-26T06:14:40.376Z,7.81
2022-10-26T06:17:36.635Z,7.84
2022-10-26T06:20:22.286Z,7.87
2022-10-26T06:23:06.541Z,7.91
2022-10-26T06:25:45.534Z,7.97
2022-10-26T06:28:29.874Z,8.04
2022-10-26T06:31:01.925Z,8.11
2022-10-26T06:33:34.236Z,8.19
2022-10-26T06:36:21.701Z,8.29
2022-10-26T06:38:58.081Z,8.38
2022-10-26T06:41:32.052Z,8.49
2022-10-26T06:44:06.292Z,8.60
2022-10-26T06:46:45.075Z,8.76
2022-10-26T06:49:23.212Z,9.21
2022-10-26T06:51:59.879Z,10.07
2022-10-26T06:54:46.704Z,11.03
2022-10-26T06:57:22.485Z,11.78
2022-10-26T07:00:01.124Z,11.93
2022-10-26T07:02:33.936Z,12.14
2022-10-26T07:05:10.239Z,12.09
2022-10-26T07:07:44.350Z,12.14
2022-10-26T07:10:17.723Z,12.58
2022-10-26T07:12:49.830Z,13.74
2022-10-26T07:15:24.665Z,15.32
2022-10-26T07:17:56.585Z,16.95
2022-10-26T07:20:30.189Z,18.33
2022-10-26T07:23:06.933Z,19.39
2022-10-26T07:25:40.578Z,20.20
2022-10-26T07:28:13.184Z,20.17
2022-10-26T07:30:45.205Z,19.29
2022-10-26T07:33:17.564Z,18.29
2022-10-26T07:35:52.124Z,17.88
2022-10-26T07:38:24.042Z,18.16
2022-10-26T07:40:56.024Z,18.60
2022-10-26T07:43:28.421Z,19.33
2022-10-26T07:46:00.369Z,20.14
2022-10-26T07:48:32.574Z,20.79
2022-10-26T07:51:05.491Z,21.50
2022-10-26T07:53:37.458Z,21.70
2022-10-26T07:56:11.232Z,21.73
2022-10-26T07:58:44.086Z,21.87
2022-10-26T08:01:17.708Z,22.60
2022-10-26T08:03:52.659Z,23.87
2022-10-26T08:06:25.130Z,24.74
2022-10-26T08:09:00.022Z,24.92
2022-10-26T08:11:32.070Z,24.55
2022-10-26T08:14:04.484Z,23.79
2022-10-26T08:16:36.410Z,23.51
2022-10-26T08:19:08.659Z,24.39
2022-10-26T08:21:41.937Z,26.12
2022-10-26T08:24:14.684Z,28.22
2022-10-26T08:26:46.565Z,30.05
2022-10-26T08:29:20.452Z,31.49
2022-10-26T08:31:52.412Z,32.75
2022-10-26T08:34:24.287Z,33.62
2022-10-26T08:55:05.524Z,38.19
2022-10-26T09:11:09.972Z,39.60
2022-10-26T09:15:33.459Z,39.45
2022-10-26T09:27:16.723Z,41.10
2022-10-26T09:29:56.315Z,40.66
2022-10-26T09:32:28.445Z,40.18
2022-10-26T09:35:07.661Z,39.28
2022-10-26T09:37:42.001Z,38.87
2022-10-26T09:40:22.871Z,39.13
2022-10-26T09:43:03.886Z,39.53
2022-10-26T09:45:39.027Z,39.60
2022-10-26T09:48:17.688Z,39.05
2022-10-26T09:50:52.550Z,38.70
2022-10-26T09:53:25.008Z,37.64
2022-10-26T09:56:06.708Z,36.72
2022-10-26T09:58:42.744Z,36.14
2022-10-26T10:01:35.687Z,36.08
2022-10-26T10:04:21.163Z,35.97
2022-10-26T10:07:12.387Z,35.53
2022-10-26T10:09:44.430Z,35.09
2022-10-26T10:12:23.101Z,34.30
2022-10-26T10:15:01.856Z,32.79
2022-10-26T10:17:34.708Z,31.23
2022-10-26T10:20:19.227Z,30.94
2022-10-26T10:22:59.866Z,32.12
2022-10-26T10:25:40.182Z,33.04
2022-10-26T10:28:25.670Z,33.62
2022-10-26T10:31:00.511Z,35.04
2022-10-26T10:33:45.866Z,36.21
2022-10-26T10:36:59.365Z,36.52
2022-10-26T10:39:38.695Z,37.04
2022-10-26T10:42:22.974Z,36.76
2022-10-26T10:44:56.839Z,34.91
2022-10-26T10:47:30.901Z,33.98
2022-10-26T10:50:05.884Z,34.74
2022-10-26T10:52:41.263Z,35.34
2022-10-26T10:55:22.178Z,34.07
2022-10-26T10:58:09.465Z,32.49
2022-10-26T11:00:45.088Z,31.24
2022-10-26T11:03:32.353Z,30.58
2022-10-26T11:06:16.411Z,30.59
2022-10-26T11:08:53.746Z,30.54
2022-10-26T11:11:29.994Z,29.58
2022-10-26T11:14:06.847Z,28.54
2022-10-26T11:16:43.680Z,27.90
2022-10-26T11:19:23.872Z,28.14
2022-10-26T11:21:57.265Z,27.86
2022-10-26T11:24:35.313Z,27.27
2022-10-26T11:27:17.094Z,26.56
2022-10-26T11:29:52.890Z,26.29
2022-10-26T11:32:29.979Z,26.08
2022-10-26T11:35:06.783Z,25.49
2022-10-26T11:37:46.484Z,24.88
2022-10-26T11:40:34.746Z,24.50
2022-10-26T11:43:15.615Z,23.99
2022-10-26T11:45:55.665Z,23.51
2022-10-26T11:48:37.140Z,23.40
2022-10-26T11:51:17.788Z,23.87
2022-10-26T11:54:08.345Z,24.59
2022-10-26T11:56:45.519Z,24.57
2022-10-26T11:59:21.987Z,24.00
2022-10-26T12:01:58.356Z,23.43
2022-10-26T12:04:34.878Z,22.99
2022-10-26T12:07:12.724Z,22.99
2022-10-26T12:09:46.472Z,22.98
2022-10-26T12:12:28.077Z,23.01
2022-10-26T12:15:07.104Z,22.86
2022-10-26T12:17:46.717Z,22.60
2022-10-26T12:20:50.583Z,22.33
2022-10-26T12:23:40.510Z,21.96
2022-10-26T12:26:51.634Z,21.66
2022-10-26T12:29:45.706Z,21.33
2022-10-26T12:32:54.322Z,21.07
2022-10-26T12:35:35.503Z,20.86
2022-10-26T12:38:55.535Z,20.70
2022-10-26T12:41:29.207Z,20.56
2022-10-26T12:44:25.517Z,20.46
2022-10-26T12:46:57.528Z,20.37
2022-10-26T12:49:59.708Z,20.35
2022-10-26T12:52:47.501Z,20.62
2022-10-26T12:55:57.249Z,21.22
2022-10-26T12:59:05.243Z,22.12
2022-10-26T13:05:06.075Z,24.43
2022-10-26T13:07:41.652Z,25.00
2022-10-26T13:10:24.304Z,25.18
2022-10-26T13:12:58.383Z,25.58
2022-10-26T13:15:34.646Z,26.03
2022-10-26T13:18:18.019Z,26.17
2022-10-26T13:21:05.283Z,26.24
2022-10-26T13:23:39.836Z,26.39
2022-10-26T13:26:13.894Z,26.21
2022-10-26T13:28:52.095Z,25.98
2022-10-26T13:31:57.794Z,25.43
2022-10-26T13:34:33.047Z,24.90
2022-10-26T13:37:21.356Z,24.45
2022-10-26T13:39:56.325Z,23.79
2022-10-26T13:49:47.510Z,24.70
2022-10-26T13:52:28.745Z,24.58
2022-10-26T13:55:04.913Z,24.25
2022-10-26T13:57:40.611Z,23.94
2022-10-26T14:00:20.546Z,23.74
2022-10-26T14:02:52.911Z,23.69
2022-10-26T14:05:26.089Z,23.79
2022-10-26T14:08:00.355Z,23.76
2022-10-26T14:10:38.104Z,23.59
2022-10-26T14:13:19.242Z,23.47
2022-10-26T14:15:51.564Z,23.38
2022-10-26T14:18:26.665Z,23.35
2022-10-26T14:21:03.317Z,23.24
2022-10-26T14:23:38.971Z,23.05
2022-10-26T14:26:22.425Z,22.84
2022-10-26T14:28:59.388Z,22.58
2022-10-26T14:31:35.835Z,22.28
2022-10-26T14:34:13.500Z,22.02
2022-10-26T14:36:49.967Z,21.71
2022-10-26T14:39:31.356Z,21.47
2022-10-26T14:42:11.492Z,21.19
2022-10-26T14:44:43.864Z,20.92
2022-10-26T14:47:24.453Z,20.68
2022-10-26T14:49:57.594Z,20.45
2022-10-26T14:52:33.927Z,20.22
2022-10-26T14:55:16.206Z,20.00
2022-10-26T14:57:49.764Z,19.78
2022-10-26T15:00:24.550Z,19.52
2022-10-26T15:02:59.300Z,19.25
2022-10-26T15:05:35.989Z,19.01
2022-10-26T15:08:56.967Z,18.76
2022-10-26T15:11:33.601Z,18.44
2022-10-26T15:14:12.738Z,18.20
2022-10-26T15:16:54.892Z,17.95
2022-10-26T15:19:30.879Z,17.73
2022-10-26T15:22:03.637Z,17.51
2022-10-26T15:24:40.054Z,17.29
2022-10-26T15:27:19.296Z,17.11
2022-10-26T15:30:09.315Z,16.91
2022-10-26T15:32:42.062Z,16.71
2022-10-26T15:35:33.644Z,16.48
2022-10-26T15:38:05.821Z,16.24
2022-10-26T15:40:45.480Z,16.04
2022-10-26T15:43:17.571Z,15.88
2022-10-26T15:45:54.638Z,15.74
2022-10-26T15:48:30.038Z,15.56
2022-10-26T15:51:02.114Z,15.37
2022-10-26T15:53:34.738Z,15.19
2022-10-26T15:56:14.348Z,15.07
2022-10-26T15:58:47.160Z,14.94
2022-10-26T16:01:29.434Z,14.78
2022-10-26T16:04:02.351Z,14.64
2022-10-26T16:06:36.459Z,14.51
2022-10-26T16:09:13.550Z,14.38
2022-10-26T16:11:46.202Z,14.28
2022-10-26T16:14:21.223Z,14.15
2022-10-26T16:16:53.182Z,14.02
2022-10-26T16:19:30.718Z,13.90
2022-10-26T16:22:04.061Z,13.79
2022-10-26T16:24:36.537Z,13.67
2022-10-26T16:27:08.505Z,13.52
2022-10-26T16:29:40.541Z,13.41
2022-10-26T16:32:13.004Z,13.29
2022-10-26T16:34:45.097Z,13.16
2022-10-26T16:37:17.237Z,13.01
2022-10-26T16:39:49.109Z,12.92
2022-10-26T16:42:21.128Z,12.84
2022-10-26T16:44:54.096Z,12.78
2022-10-26T16:47:26.482Z,12.69
2022-10-26T16:49:58.571Z,12.60
2022-10-26T16:52:30.914Z,12.52
2022-10-26T16:55:03.541Z,12.43
2022-10-26T16:57:35.839Z,12.36
2022-10-26T17:00:10.242Z,12.32
2022-10-26T17:02:44.500Z,12.27
2022-10-26T17:05:16.751Z,12.18
2022-10-26T17:07:50.660Z,12.06
2022-10-26T17:10:28.148Z,12.00
2022-10-26T17:13:00.121Z,12.00
2022-10-26T17:15:35.688Z,11.96
2022-10-26T17:18:12.027Z,11.89
2022-10-26T17:32:27.804Z,11.32
2022-10-26T17:40:46.022Z,11.00
2022-10-26T17:43:18.633Z,10.87
2022-10-26T17:48:45.839Z,10.79
2022-10-26T17:56:09.075Z,10.66
2022-10-26T17:59:14.734Z,10.59
2022-10-26T18:01:47.433Z,10.54
2022-10-26T18:04:26.045Z,10.44
2022-10-26T18:11:55.045Z,10.42
2022-10-26T18:24:22.946Z,10.23
2022-10-26T18:26:55.179Z,10.16
2022-10-26T18:29:27.314Z,10.11
2022-10-26T18:32:28.874Z,10.09
2022-10-26T18:35:01.252Z,10.03
2022-10-26T18:38:56.384Z,10.00
2022-10-26T18:46:33.966Z,9.84
2022-10-26T18:54:44.667Z,9.78
2022-10-26T19:05:58.570Z,9.63
2022-10-26T19:08:30.866Z,9.59
2022-10-26T19:11:43.490Z,9.54
2022-10-26T19:14:16.439Z,9.52
2022-10-26T19:16:51.732Z,9.50
2022-10-26T19:25:40.554Z,9.38
2022-10-26T19:28:43.651Z,9.32
2022-10-26T19:31:16.262Z,9.27
2022-10-26T19:35:18.362Z,9.26
2022-10-26T19:37:51.014Z,9.25
2022-10-26T19:40:23.751Z,9.23
2022-10-26T19:43:02.158Z,9.21
2022-10-26T19:45:34.185Z,9.21
2022-10-26T19:48:51.947Z,9.21
2022-10-26T19:51:25.420Z,9.19
2022-10-26T19:54:03.104Z,9.16
2022-10-26T19:56:39.416Z,9.16
2022-10-26T19:59:13.602Z,9.15
2022-10-26T20:01:45.845Z,9.12
2022-10-26T20:04:36.939Z,9.15
2022-10-26T20:07:09.128Z,9.11
2022-10-26T20:09:47.089Z,9.11
2022-10-26T20:12:19.304Z,9.08
2022-10-26T20:14:51.328Z,9.04
2022-10-26T20:17:28.493Z,9.01
2022-10-26T20:20:03.984Z,8.99
2022-10-26T20:22:36.135Z,8.97
2022-10-26T20:25:10.390Z,8.94
2022-10-26T20:27:48.646Z,8.91
2022-10-26T20:30:21.118Z,8.86
2022-10-26T20:32:53.343Z,8.81
2022-10-26T20:35:27.162Z,8.74
2022-10-26T20:38:00.906Z,8.64
2022-10-26T20:40:34.129Z,8.63
2022-10-26T20:43:09.865Z,8.66
2022-10-26T20:45:49.017Z,8.68
2022-10-26T20:48:24.670Z,8.67
2022-10-26T20:51:02.422Z,8.64
2022-10-26T20:53:39.390Z,8.62
2022-10-26T20:56:21.077Z,8.58
2022-10-26T20:58:57.510Z,8.55
2022-10-26T21:01:32.024Z,8.50
2022-10-26T21:04:07.269Z,8.45
2022-10-26T21:06:55.567Z,8.43
2022-10-26T21:09:31.794Z,8.38
2022-10-26T21:12:08.644Z,8.36
2022-10-26T21:14:41.090Z,8.31
2022-10-26T21:17:13.378Z,8.24
2022-10-26T21:19:53.963Z,8.20
2022-10-26T21:22:26.102Z,8.16
2022-10-26T21:24:58.424Z,8.11
2022-10-26T21:27:31.593Z,8.11
2022-10-26T21:30:06.679Z,8.13
2022-10-26T21:32:38.688Z,8.12
2022-10-26T21:35:11.320Z,8.10
2022-10-26T21:37:46.450Z,8.10
2022-10-26T21:40:18.763Z,8.11
2022-10-26T21:42:53.977Z,8.11
2022-10-26T21:45:26.121Z,8.11
2022-10-26T21:47:58.097Z,8.10
2022-10-26T21:50:30.152Z,8.10
2022-10-26T21:53:02.492Z,8.10
2022-10-26T21:55:34.993Z,8.12
2022-10-26T21:58:11.065Z,8.10
2022-10-26T22:00:46.191Z,8.08
2022-10-26T22:03:23.036Z,8.12
2022-10-26T22:06:06.844Z,8.17
2022-10-26T22:08:39.646Z,8.19
2022-10-26T22:11:15.798Z,8.20
2022-10-26T22:13:52.401Z,8.23
2022-10-26T22:16:26.409Z,8.25
2022-10-26T22:19:04.022Z,8.27
2022-10-26T22:21:40.283Z,8.30
2022-10-26T22:24:12.759Z,8.33
2022-10-26T22:26:44.764Z,8.34
2022-10-26T22:29:19.880Z,8.36
2022-10-26T22:31:55.129Z,8.37
2022-10-26T22:34:28.114Z,8.38
2022-10-26T22:37:00.160Z,8.35
2022-10-26T22:39:32.165Z,8.32
2022-10-26T22:42:06.931Z,8.30
2022-10-26T22:44:39.117Z,8.28
2022-10-26T22:47:13.789Z,8.24
2022-10-26T22:49:46.827Z,8.18
2022-10-26T22:52:22.719Z,8.12
2022-10-26T22:54:55.340Z,8.07
2022-10-26T22:57:27.926Z,8.01
2022-10-26T23:00:00.780Z,7.97
2022-10-26T23:02:38.152Z,7.92
2022-10-26T23:05:11.429Z,7.86
2022-10-26T23:07:43.453Z,7.83
2022-10-26T23:10:15.470Z,7.80
2022-10-26T23:12:50.024Z,7.78
2022-10-26T23:15:22.156Z,7.76
2022-10-26T23:17:55.996Z,7.73
2022-10-26T23:20:32.443Z,7.73
2022-10-26T23:23:04.833Z,7.71
2022-10-26T23:25:36.866Z,7.69
2022-10-26T23:28:12.915Z,7.67
2022-10-26T23:30:47.508Z,7.64
2022-10-26T23:33:22.326Z,7.60
2022-10-26T23:35:58.943Z,7.55
2022-10-26T23:38:34.317Z,7.52
2022-10-26T23:41:12.817Z,7.51
2022-10-26T23:43:45.940Z,7.49
2022-10-26T23:46:18.344Z,7.45
2022-10-26T23:48:53.990Z,7.44
2022-10-26T23:51:26.890Z,7.42
2022-10-26T23:53:59.948Z,7.40
2022-10-26T23:56:32.311Z,7.41
2022-10-26T23:59:08.595Z,7.41
